Rosier, Georgia
Current Conditions -  °F | °C
As of 3:35 PM on Saturday 25 Oct 2014 (Local Time) from KOKZ Reporting Station
Clear Clear  
Wind Chill: 75°   Ceiling: Unl
Heat Index: 75°   Visibility: 10mi
Dew Point: 49°   Wind: 3mph
Humidity: 40%   Direction: 280°W
Pressure: 30.01"   Gusts: NA
Location:  33.028°N, 82.379°W
Report Text: KOKZ 251935Z AUTO 28003KT 10SM CLR 24/10 A3001 RMK AO2 T02410097
Loading
Personal Weather Stations






























Interactive Weather Map
Tropical Storm Tracking
New forecast layout! Learn more

10-Day Weather Forecast

Advertisements
Track Severe Weather on mobile